Time;durP1;ratioP1;P1;durP2;ratioP2;P2;SDS_P1;SDS_P2;PMS_P1;PMS_P2;Temp;Humidity;BMP_temperature;BMP_pressure;BME280_temperature;BME280_humidity;BME280_pressure;Samples;Min_cycle;Max_cycle;Signal;HPM_P1;HPM_P2
2022/10/25 00:01:38;;;;;;;15.93;12.85;;;;;;;12.27;100.00;99772.67;1695975;82;21440;-48
2022/10/25 00:04:04;;;;;;;19.82;14.73;;;;;;;12.25;100.00;99767.35;1691961;82;21081;-47
2022/10/25 00:06:31;;;;;;;17.65;14.73;;;;;;;12.25;100.00;99759.77;1696301;82;21204;-47
2022/10/25 00:08:58;;;;;;;20.00;15.25;;;;;;;12.24;100.00;99764.77;1697768;82;21073;-48
2022/10/25 00:11:27;;;;;;;22.75;16.48;;;;;;;12.24;100.00;99768.34;1698722;82;21845;-48
2022/10/25 00:13:57;;;;;;;17.70;14.07;;;;;;;12.21;100.00;99764.44;1682697;82;21128;-48
2022/10/25 00:16:27;;;;;;;18.95;15.18;;;;;;;12.21;100.00;99764.44;1693996;82;21582;-48
2022/10/25 00:18:53;;;;;;;15.80;14.30;;;;;;;12.20;100.00;99752.38;1721638;82;21372;-48
2022/10/25 00:21:20;;;;;;;16.90;15.05;;;;;;;12.20;100.00;99745.63;1720970;81;22179;-47
2022/10/25 00:23:47;;;;;;;18.57;14.90;;;;;;;12.19;100.00;99742.06;1719302;82;21568;-48
2022/10/25 00:26:13;;;;;;;15.45;13.93;;;;;;;12.21;100.00;99740.16;1717840;82;21040;-48
2022/10/25 00:28:40;;;;;;;16.65;15.00;;;;;;;12.21;100.00;99733.89;1719547;82;21629;-48
2022/10/25 00:31:09;;;;;;;18.42;15.03;;;;;;;12.21;100.00;99729.84;1721913;82;21100;-47
2022/10/25 00:33:36;;;;;;;16.95;14.65;;;;;;;12.21;100.00;99721.74;1719533;82;22673;-48
2022/10/25 00:36:10;;;;;;;16.55;14.68;;;;;;;12.19;100.00;99724.52;1719620;81;21714;-47
2022/10/25 00:38:37;;;;;;;20.97;15.63;;;;;;;12.20;100.00;99725.39;1718849;81;21048;-48
2022/10/25 00:41:04;;;;;;;19.42;15.05;;;;;;;12.19;100.00;99719.60;1701656;82;21020;-47
2022/10/25 00:43:33;;;;;;;20.43;16.75;;;;;;;12.19;100.00;99721.82;1718916;82;21020;-48
2022/10/25 00:46:02;;;;;;;17.98;14.55;;;;;;;12.19;100.00;99724.52;1720923;81;21074;-48
2022/10/25 00:48:29;;;;;;;18.42;14.95;;;;;;;12.19;100.00;99727.70;1719034;81;21784;-48
2022/10/25 00:50:56;;;;;;;16.15;14.60;;;;;;;12.17;100.00;99722.38;1720271;82;21044;-47
2022/10/25 00:53:28;;;;;;;19.05;14.63;;;;;;;12.19;100.00;99719.60;1720048;82;21047;-48
2022/10/25 00:56:03;;;;;;;17.70;14.93;;;;;;;12.17;100.00;99712.94;1722289;81;21481;-48
2022/10/25 00:58:31;;;;;;;17.42;15.50;;;;;;;12.17;100.00;99710.23;1719492;82;21040;-47
2022/10/25 01:00:57;;;;;;;16.02;13.45;;;;;;;12.18;100.00;99713.80;1719277;82;21833;-48
2022/10/25 01:03:24;;;;;;;17.92;15.63;;;;;;;12.18;100.00;99703.89;1730244;81;21458;-48
2022/10/25 01:05:51;;;;;;;17.15;14.55;;;;;;;12.17;100.00;99715.62;1720945;80;21174;-48
2022/10/25 01:08:18;;;;;;;16.10;14.20;;;;;;;12.17;100.00;99707.53;1719190;80;21044;-47
2022/10/25 01:10:45;;;;;;;18.32;15.35;;;;;;;12.16;100.00;99711.70;1718876;80;21063;-47
2022/10/25 01:13:12;;;;;;;16.67;14.35;;;;;;;12.16;100.00;99703.13;1725215;80;21377;-46
2022/10/25 01:16:10;;;;;;;17.82;15.30;;;;;;;12.15;100.00;99697.33;1718799;81;21505;-46
2022/10/25 01:19:05;;;;;;;17.37;14.38;;;;;;;12.15;100.00;99695.98;1720079;81;21113;-49
2022/10/25 01:21:46;;;;;;;17.60;14.45;;;;;;;12.13;100.00;99697.89;1721185;81;21072;-53
2022/10/25 01:24:34;;;;;;;17.85;14.85;;;;;;;12.12;100.00;99692.09;1716136;82;21071;-48
2022/10/25 01:27:40;;;;;;;15.50;13.18;;;;;;;12.11;100.00;99688.52;1694660;82;21945;-48
2022/10/25 01:30:21;;;;;;;19.25;14.63;;;;;;;12.11;100.00;99683.13;1715550;81;21119;-49
2022/10/25 01:33:10;;;;;;;17.37;15.03;;;;;;;12.09;100.00;99678.77;1719048;82;21041;-49
2022/10/25 01:35:55;;;;;;;16.17;14.10;;;;;;;12.08;100.00;99672.49;1721931;80;21051;-48
2022/10/25 01:38:49;;;;;;;18.82;15.45;;;;;;;12.07;100.00;99668.56;1719638;80;21672;-48
2022/10/25 01:41:47;;;;;;;15.20;13.62;;;;;;;12.04;100.00;99672.28;1716759;82;21262;-48
2022/10/25 01:44:38;;;;;;;16.07;14.35;;;;;;;12.01;100.00;99671.09;1717738;81;21044;-48
2022/10/25 01:47:17;;;;;;;14.40;13.00;;;;;;;11.98;100.00;99678.51;1725724;81;21085;-48
2022/10/25 01:49:52;;;;;;;15.08;13.48;;;;;;;11.93;100.00;99675.17;1669151;84;21117;-49
2022/10/25 01:52:21;;;;;;;15.50;13.60;;;;;;;11.90;100.00;99679.41;1696152;82;21082;-49
2022/10/25 01:54:49;;;;;;;16.62;14.45;;;;;;;11.85;100.00;99672.89;1714700;81;21852;-49
2022/10/25 01:57:57;;;;;;;15.70;14.18;;;;;;;11.81;100.00;99668.64;1719290;81;21032;-49
2022/10/25 02:00:24;;;;;;;14.73;13.30;;;;;;;11.76;100.00;99670.70;1719818;80;21038;-48
2022/10/25 02:03:17;;;;;;;15.28;13.65;;;;;;;11.69;100.00;99682.27;1705064;82;21000;-48
2022/10/25 02:06:06;;;;;;;14.78;13.18;;;;;;;11.65;100.00;99687.41;1723751;81;21064;-49
2022/10/25 02:09:00;;;;;;;15.03;12.70;;;;;;;11.59;100.00;99687.75;1700707;82;21701;-48
2022/10/25 02:11:29;;;;;;;15.30;12.73;;;;;;;11.50;100.00;99692.75;1725885;81;21051;-48
2022/10/25 02:14:23;;;;;;;15.50;13.93;;;;;;;11.50;100.00;99692.75;1716332;80;21081;-48
2022/10/25 02:17:15;;;;;;;18.40;14.53;;;;;;;11.44;100.00;99696.66;1725080;82;21110;-48
2022/10/25 02:19:53;;;;;;;18.35;16.35;;;;;;;11.38;100.00;99698.33;1720708;81;21044;-48
2022/10/25 02:22:23;;;;;;;16.93;15.25;;;;;;;11.29;100.00;99707.77;1718341;81;21807;-48
2022/10/25 02:24:49;;;;;;;19.00;14.15;;;;;;;11.20;100.00;99704.67;1717886;81;21009;-48
2022/10/25 02:27:16;;;;;;;16.67;13.05;;;;;;;11.20;100.00;99704.67;1718619;82;21358;-48
2022/10/25 02:29:43;;;;;;;13.83;12.37;;;;;;;11.14;100.00;99699.61;1723794;82;22206;-48
2022/10/25 02:32:09;;;;;;;16.62;13.20;;;;;;;11.08;100.00;99691.34;1717630;81;21024;-48
2022/10/25 02:34:38;;;;;;;15.70;14.05;;;;;;;11.04;100.00;99697.86;1718718;80;22371;-48
2022/10/25 02:37:05;;;;;;;14.98;13.28;;;;;;;11.04;100.00;99697.86;1721884;81;21033;-48
2022/10/25 02:39:31;;;;;;;18.00;12.07;;;;;;;11.02;100.00;99701.56;1718059;82;21101;-48
2022/10/25 02:42:01;;;;;;;14.65;13.22;;;;;;;11.02;100.00;99701.56;1719776;81;21076;-48
2022/10/25 02:44:26;;;;;;;14.10;11.73;;;;;;;11.00;100.00;99696.25;1665576;84;21547;-48
2022/10/25 02:46:53;;;;;;;19.52;13.22;;;;;;;10.97;100.00;99694.58;1663917;85;23144;-48
2022/10/25 02:49:19;;;;;;;14.85;13.15;;;;;;;10.97;100.00;99707.20;1720303;81;21064;-48
2022/10/25 02:51:46;;;;;;;15.63;12.13;;;;;;;10.93;100.00;99697.05;1720359;81;21028;-48
2022/10/25 02:54:12;;;;;;;18.05;12.47;;;;;;;10.93;100.00;99697.05;1721665;81;21040;-48
2022/10/25 02:56:38;;;;;;;14.85;13.35;;;;;;;10.97;100.00;99691.05;1718618;81;21049;-48
2022/10/25 02:59:05;;;;;;;14.50;12.88;;;;;;;10.95;100.00;99688.89;1726063;81;22443;-48
2022/10/25 03:01:32;;;;;;;14.53;12.55;;;;;;;10.94;100.00;99685.33;1723423;81;21986;-48
2022/10/25 03:03:58;;;;;;;15.53;13.80;;;;;;;10.94;100.00;99685.33;1720260;81;21064;-48
2022/10/25 03:06:25;;;;;;;14.83;12.35;;;;;;;10.96;100.00;99684.78;1720869;81;21126;-48
2022/10/25 03:08:52;;;;;;;16.87;14.98;;;;;;;10.96;100.00;99690.17;1722538;81;21060;-48
2022/10/25 03:11:18;;;;;;;16.07;14.45;;;;;;;10.97;100.00;99680.27;1716624;82;21715;-48
2022/10/25 03:13:46;;;;;;;17.02;14.25;;;;;;;10.99;100.00;99683.27;1718234;81;21107;-48
2022/10/25 03:16:13;;;;;;;15.03;13.58;;;;;;;10.98;100.00;99682.86;1721283;81;21505;-48
2022/10/25 03:18:39;;;;;;;18.32;16.32;;;;;;;11.01;100.00;99683.19;1723303;82;21020;-48
2022/10/25 03:21:06;;;;;;;18.62;16.62;;;;;;;11.05;100.00;99678.53;1671716;83;21336;-48
2022/10/25 03:23:33;;;;;;;18.02;16.23;;;;;;;11.09;100.00;99682.32;1720669;82;21709;-48
2022/10/25 03:25:59;;;;;;;16.95;15.20;;;;;;;11.13;100.00;99682.58;1723199;82;21534;-48
2022/10/25 03:28:27;;;;;;;20.50;18.17;;;;;;;11.13;100.00;99682.58;1723986;82;21042;-48
2022/10/25 03:30:55;;;;;;;18.32;16.42;;;;;;;11.18;100.00;99683.20;1721230;82;21044;-48
2022/10/25 03:33:22;;;;;;;17.65;15.95;;;;;;;11.18;100.00;99683.20;1722117;82;21612;-48
2022/10/25 03:35:50;;;;;;;19.73;15.70;;;;;;;11.20;100.00;99679.08;1719467;82;21940;-48
2022/10/25 03:38:17;;;;;;;17.62;14.47;;;;;;;11.21;100.00;99679.01;1720480;81;21045;-48
2022/10/25 03:40:43;;;;;;;20.60;14.83;;;;;;;11.23;100.00;99685.16;1715405;81;21019;-48
2022/10/25 03:43:10;;;;;;;14.98;13.48;;;;;;;11.23;100.00;99682.47;1716993;82;21028;-48
2022/10/25 03:45:37;;;;;;;19.00;12.88;;;;;;;11.24;100.00;99676.13;1715803;81;21080;-48
2022/10/25 03:48:05;;;;;;;14.15;12.58;;;;;;;11.25;100.00;99673.84;1715358;82;21092;-48
2022/10/25 03:50:34;;;;;;;14.38;13.13;;;;;;;11.28;100.00;99675.03;1718000;80;21653;-48
2022/10/25 03:53:02;;;;;;;15.60;14.00;;;;;;;11.28;100.00;99668.30;1717482;82;21616;-48
2022/10/25 03:55:31;;;;;;;14.07;12.73;;;;;;;11.30;100.00;99664.19;1719849;82;21032;-48
2022/10/25 03:57:58;;;;;;;12.88;11.55;;;;;;;11.30;100.00;99664.19;1722628;81;21510;-48
2022/10/25 04:00:25;;;;;;;13.50;12.10;;;;;;;11.31;100.00;99664.08;1721124;81;21492;-48
2022/10/25 04:02:57;;;;;;;13.43;12.10;;;;;;;11.34;100.00;99660.36;1719201;81;21069;-48
2022/10/25 04:05:24;;;;;;;12.15;11.05;;;;;;;11.33;100.00;99660.83;1721709;81;21057;-48
2022/10/25 04:07:51;;;;;;;12.18;11.15;;;;;;;11.37;100.00;99659.73;1722475;80;21666;-48
2022/10/25 04:10:21;;;;;;;10.88;9.78;;;;;;;11.38;100.00;99654.74;1724918;81;21068;-48
2022/10/25 04:12:47;;;;;;;12.13;10.85;;;;;;;11.41;100.00;99655.51;1721723;81;21475;-48
2022/10/25 04:15:14;;;;;;;11.10;9.35;;;;;;;11.43;100.00;99654.95;1703274;81;21077;-48
2022/10/25 04:17:40;;;;;;;11.93;10.72;;;;;;;11.44;100.00;99658.05;1695022;82;21042;-48
2022/10/25 04:20:08;;;;;;;10.95;9.88;;;;;;;11.47;100.00;99663.29;1694400;82;21036;-48
2022/10/25 04:22:34;;;;;;;10.45;9.35;;;;;;;11.47;100.00;99661.47;1695995;82;21194;-48
2022/10/25 04:25:01;;;;;;;10.50;9.05;;;;;;;11.50;100.00;99660.41;1694282;82;22896;-48
2022/10/25 04:27:27;;;;;;;11.45;10.38;;;;;;;11.50;100.00;99663.98;1694234;82;21113;-48
2022/10/25 04:29:54;;;;;;;12.03;11.03;;;;;;;11.53;100.00;99661.61;1697186;82;21097;-48
2022/10/25 04:32:21;;;;;;;10.80;9.73;;;;;;;11.51;100.00;99649.55;1691682;82;21158;-48
2022/10/25 04:34:48;;;;;;;11.80;10.55;;;;;;;11.52;100.00;99654.47;1693467;82;21315;-48
2022/10/25 04:37:15;;;;;;;11.15;9.08;;;;;;;11.52;100.00;99657.16;1698234;82;21152;-48
2022/10/25 04:39:41;;;;;;;11.33;8.78;;;;;;;11.54;100.00;99651.22;1692614;82;21045;-47
2022/10/25 04:42:09;;;;;;;10.28;9.33;;;;;;;11.58;100.00;99648.27;1698869;82;21422;-48
2022/10/25 04:44:35;;;;;;;12.23;9.15;;;;;;;11.60;100.00;99641.45;1693914;82;21721;-48
2022/10/25 04:47:02;;;;;;;10.45;9.00;;;;;;;11.62;100.00;99636.38;1697958;82;21153;-48
2022/10/25 04:49:29;;;;;;;9.15;8.28;;;;;;;11.65;100.00;99636.70;1692757;82;21757;-48
2022/10/25 04:51:57;;;;;;;10.20;9.20;;;;;;;11.66;100.00;99641.11;1696159;82;21049;-48
2022/10/25 04:54:23;;;;;;;11.12;10.13;;;;;;;11.69;100.00;99635.56;1702605;82;21052;-48
2022/10/25 04:56:50;;;;;;;9.85;9.00;;;;;;;11.70;100.00;99627.39;1708715;82;21104;-48
2022/10/25 04:59:16;;;;;;;11.70;10.55;;;;;;;11.72;100.00;99632.70;1700852;82;21061;-48
2022/10/25 05:01:42;;;;;;;9.10;8.20;;;;;;;11.72;100.00;99638.97;1700766;82;21558;-48
2022/10/25 05:04:09;;;;;;;9.68;8.48;;;;;;;11.73;100.00;99638.49;1706341;82;21073;-48
2022/10/25 05:06:37;;;;;;;10.45;9.38;;;;;;;11.72;100.00;99637.63;1692022;82;21077;-48
2022/10/25 05:09:03;;;;;;;10.32;9.25;;;;;;;11.74;100.00;99640.20;1695671;82;21065;-48
2022/10/25 05:11:31;;;;;;;10.18;9.28;;;;;;;11.74;100.00;99641.11;1696924;82;21065;-48
2022/10/25 05:13:58;;;;;;;8.93;8.03;;;;;;;11.75;100.00;99633.42;1699895;80;21818;-48
2022/10/25 05:16:26;;;;;;;8.73;7.37;;;;;;;11.78;100.00;99639.61;1725974;80;21036;-48
2022/10/25 05:18:54;;;;;;;9.70;8.35;;;;;;;11.79;100.00;99638.19;1724338;81;21035;-48
2022/10/25 05:21:27;;;;;;;9.98;8.08;;;;;;;11.81;100.00;99639.45;1722180;81;21668;-48
2022/10/25 05:23:52;;;;;;;9.35;8.10;;;;;;;11.84;100.00;99643.31;1727681;81;21082;-48
2022/10/25 05:26:20;;;;;;;17.37;14.58;;;;;;;11.87;100.00;99642.67;1720323;81;23060;-48
2022/10/25 05:28:48;;;;;;;25.10;18.82;;;;;;;11.88;100.00;99639.03;1722023;82;21013;-48
2022/10/25 05:31:17;;;;;;;16.85;14.75;;;;;;;11.92;100.00;99647.33;1722269;82;21066;-48
2022/10/25 05:33:44;;;;;;;11.33;9.80;;;;;;;11.94;100.00;99640.50;1665354;84;21086;-48
2022/10/25 05:36:12;;;;;;;12.45;9.18;;;;;;;11.98;100.00;99632.17;1721670;82;21096;-48
2022/10/25 05:38:39;;;;;;;9.85;8.83;;;;;;;12.01;100.00;99637.85;1721407;81;21792;-48
2022/10/25 05:41:06;;;;;;;8.93;8.08;;;;;;;12.03;100.00;99632.77;1723127;82;21017;-48
2022/10/25 05:43:32;;;;;;;11.30;8.18;;;;;;;12.06;100.00;99638.01;1720349;81;21745;-48
2022/10/25 05:46:10;;;;;;;9.08;8.20;;;;;;;12.11;100.00;99643.13;1668267;84;21090;-48
2022/10/25 05:48:37;;;;;;;10.63;7.45;;;;;;;12.13;100.00;99644.80;1660602;84;21051;-47
2022/10/25 05:51:21;;;;;;;10.03;8.53;;;;;;;12.16;100.00;99642.89;1722488;80;21493;-48
2022/10/25 05:53:50;;;;;;;10.10;7.75;;;;;;;12.19;100.00;99648.09;1725753;81;21097;-48
2022/10/25 05:56:17;;;;;;;7.75;7.15;;;;;;;12.21;100.00;99655.16;1726146;81;20989;-48
2022/10/25 05:58:44;;;;;;;8.63;7.78;;;;;;;12.25;100.00;99646.42;1723470;81;21037;-48
2022/10/25 06:01:16;;;;;;;12.90;8.98;;;;;;;12.28;100.00;99643.05;1722017;81;21525;-48
2022/10/25 06:03:43;;;;;;;11.10;10.05;;;;;;;12.31;100.00;99645.59;1727395;82;21733;-48
2022/10/25 06:06:10;;;;;;;12.05;9.60;;;;;;;12.33;100.00;99645.02;1723099;81;21052;-48
2022/10/25 06:08:37;;;;;;;15.63;10.70;;;;;;;12.37;100.00;99648.41;1719151;82;21034;-48
2022/10/25 06:11:06;;;;;;;14.58;12.80;;;;;;;12.40;100.00;99642.84;1724222;82;21108;-48
2022/10/25 06:13:32;;;;;;;12.68;11.28;;;;;;;12.42;100.00;99638.20;1725511;81;21079;-48
2022/10/25 06:16:05;;;;;;;11.97;10.25;;;;;;;12.42;100.00;99638.20;1675479;84;21154;-48
2022/10/25 06:18:32;;;;;;;10.35;8.43;;;;;;;12.44;100.00;99637.64;1696171;82;21349;-49
2022/10/25 06:21:03;;;;;;;12.73;9.18;;;;;;;12.48;100.00;99644.14;1678572;83;21551;-49
2022/10/25 06:23:30;;;;;;;12.50;9.65;;;;;;;12.50;100.00;99650.30;1682766;83;21061;-49
2022/10/25 06:26:02;;;;;;;12.23;10.75;;;;;;;12.54;100.00;99646.95;1674453;82;21431;-49
2022/10/25 06:28:30;;;;;;;12.03;10.82;;;;;;;12.60;100.00;99651.98;1678737;83;21333;-49
2022/10/25 06:31:10;;;;;;;12.80;11.45;;;;;;;12.67;100.00;99648.00;1680788;83;21064;-48
2022/10/25 06:33:38;;;;;;;11.60;9.50;;;;;;;12.73;100.00;99647.62;1678727;84;21096;-48
2022/10/25 06:36:06;;;;;;;10.95;9.95;;;;;;;12.81;100.00;99646.70;1679998;83;21072;-48
2022/10/25 06:38:33;;;;;;;10.20;9.30;;;;;;;12.89;100.00;99643.06;1676935;84;21129;-49
2022/10/25 06:41:05;;;;;;;7.75;6.95;;;;;;;12.98;100.00;99640.30;1677144;83;21934;-49
2022/10/25 06:43:33;;;;;;;11.63;10.63;;;;;;;13.06;100.00;99645.23;1675634;82;21168;-48
2022/10/25 06:46:19;;;;;;;14.45;7.78;;;;;;;13.12;100.00;99641.67;1676347;83;21022;-48
2022/10/25 06:48:46;;;;;;;10.23;6.87;;;;;;;13.18;100.00;99643.19;1672801;83;21578;-48
2022/10/25 06:51:13;;;;;;;7.67;7.03;;;;;;;13.22;100.00;99636.14;1678727;83;21147;-48
2022/10/25 06:53:39;;;;;;;7.42;6.10;;;;;;;13.25;100.00;99640.50;1679497;83;21715;-48
2022/10/25 06:56:08;;;;;;;10.63;7.60;;;;;;;13.29;100.00;99640.69;1679144;83;21069;-48
2022/10/25 06:58:35;;;;;;;12.40;7.17;;;;;;;13.31;100.00;99636.06;1680546;83;21184;-48
2022/10/25 07:01:13;;;;;;;9.33;7.20;;;;;;;13.37;100.00;99634.33;1678594;83;21542;-49
2022/10/25 07:03:39;;;;;;;9.48;7.12;;;;;;;13.43;100.00;99629.05;1675521;83;21121;-48
2022/10/25 07:06:09;;;;;;;10.90;8.15;;;;;;;13.49;100.00;99620.06;1680361;82;22683;-48
2022/10/25 07:08:39;;;;;;;14.38;12.88;;;;;;;13.56;100.00;99617.36;1678951;82;21147;-48
2022/10/25 07:11:12;;;;;;;25.00;22.05;;;;;;;13.64;100.00;99621.80;1679659;83;21073;-48
2022/10/25 07:13:38;;;;;;;21.93;19.73;;;;;;;13.74;100.00;99621.22;1680827;82;21070;-48
2022/10/25 07:16:07;;;;;;;15.85;13.72;;;;;;;13.82;100.00;99620.25;1667643;83;21121;-48
2022/10/25 07:18:35;;;;;;;10.85;9.48;;;;;;;13.89;100.00;99620.24;1671967;83;21074;-49
2022/10/25 07:21:16;;;;;;;12.80;9.53;;;;;;;13.94;100.00;99613.59;1669351;83;21121;-49
2022/10/25 07:23:42;;;;;;;12.03;7.80;;;;;;;14.00;100.00;99606.42;1662311;83;21057;-48
2022/10/25 07:26:15;;;;;;;11.08;9.73;;;;;;;14.05;100.00;99608.81;1669190;83;21082;-48
2022/10/25 07:28:43;;;;;;;7.50;6.72;;;;;;;14.12;100.00;99617.44;1666661;83;21113;-48
2022/10/25 07:31:16;;;;;;;8.38;7.65;;;;;;;14.16;100.00;99613.55;1664002;83;22987;-48
2022/10/25 07:33:43;;;;;;;8.55;7.65;;;;;;;14.21;100.00;99614.09;1669660;83;21047;-48
2022/10/25 07:36:09;;;;;;;8.55;7.65;;;;;;;14.26;100.00;99613.33;1672359;83;21494;-47
2022/10/25 07:38:37;;;;;;;10.43;8.48;;;;;;;14.33;100.00;99611.47;1664513;83;21516;-48
2022/10/25 07:41:05;;;;;;;10.08;9.18;;;;;;;14.39;100.00;99610.22;1667583;83;21544;-48
2022/10/25 07:43:33;;;;;;;9.48;7.67;;;;;;;14.47;100.00;99609.70;1663383;83;21838;-48
2022/10/25 07:45:59;;;;;;;8.60;7.80;;;;;;;14.53;100.00;99607.48;1671732;83;21086;-48
2022/10/25 07:48:26;;;;;;;7.35;6.60;;;;;;;14.63;100.00;99613.16;1664168;83;21121;-49
2022/10/25 07:50:53;;;;;;;8.08;6.42;;;;;;;14.70;100.00;99617.20;1666004;83;21675;-48
2022/10/25 07:53:19;;;;;;;7.22;6.53;;;;;;;14.79;100.00;99620.64;1664336;83;21081;-49
2022/10/25 07:55:51;;;;;;;6.28;5.78;;;;;;;14.87;100.00;99622.83;1663277;83;21915;-48
2022/10/25 07:58:17;;;;;;;7.17;5.00;;;;;;;14.93;100.00;99618.34;1722410;80;22429;-50
2022/10/25 08:00:44;;;;;;;7.58;5.50;;;;;;;15.01;100.00;99615.97;1719752;81;21053;-49
2022/10/25 08:03:12;;;;;;;7.33;5.75;;;;;;;15.07;100.00;99608.28;1666145;83;21086;-48
2022/10/25 08:05:38;;;;;;;5.92;5.42;;;;;;;15.12;100.00;99600.72;1720449;81;21044;-50
2022/10/25 08:08:05;;;;;;;5.37;4.90;;;;;;;15.21;100.00;99605.12;1671689;84;21858;-48
2022/10/25 08:10:32;;;;;;;5.45;5.03;;;;;;;15.24;100.00;99607.11;1720494;81;21364;-49
2022/10/25 08:12:59;;;;;;;7.10;5.40;;;;;;;15.30;100.00;99604.48;1720162;80;21618;-48
2022/10/25 08:15:25;;;;;;;6.42;5.08;;;;;;;15.31;100.00;99600.28;1718457;81;21082;-49
2022/10/25 08:18:02;;;;;;;5.55;5.05;;;;;;;15.34;100.00;99596.00;1724820;80;22643;-49
2022/10/25 08:20:28;;;;;;;7.22;5.25;;;;;;;15.37;100.00;99593.58;1726428;81;22831;-49
2022/10/25 08:22:58;;;;;;;9.18;6.17;;;;;;;15.37;100.00;99587.67;1727488;80;21523;-48
2022/10/25 08:25:26;;;;;;;43.98;39.38;;;;;;;15.38;100.00;99600.74;1729401;81;21658;-48
2022/10/25 08:27:54;;;;;;;11.12;10.05;;;;;;;15.38;100.00;99588.05;1729287;81;21109;-48
2022/10/25 08:30:21;;;;;;;10.43;9.43;;;;;;;15.40;100.00;99591.98;1724891;80;21886;-48
2022/10/25 08:32:47;;;;;;;5.80;5.30;;;;;;;15.39;100.00;99588.92;1734430;80;21838;-48
2022/10/25 08:35:14;;;;;;;6.05;4.60;;;;;;;15.42;100.00;99584.61;1730178;81;21075;-48
2022/10/25 08:37:40;;;;;;;4.55;4.15;;;;;;;15.46;100.00;99590.22;1735846;81;21062;-49
2022/10/25 08:40:11;;;;;;;8.55;5.67;;;;;;;15.49;100.00;99591.34;1727472;81;21956;-49
2022/10/25 08:43:01;;;;;;;6.42;5.87;;;;;;;15.51;100.00;99601.59;1729479;81;21091;-49
2022/10/25 08:45:35;;;;;;;6.78;6.17;;;;;;;15.55;100.00;99599.58;1731639;80;21787;-49
2022/10/25 08:48:01;;;;;;;10.60;4.78;;;;;;;15.56;100.00;99601.32;1729059;81;21042;-49
2022/10/25 08:50:44;;;;;;;5.58;4.67;;;;;;;15.57;100.00;99602.54;1728030;81;21664;-49
2022/10/25 08:53:19;;;;;;;7.62;5.95;;;;;;;15.59;100.00;99610.58;1730192;81;21070;-49
2022/10/25 08:55:46;;;;;;;6.50;4.97;;;;;;;15.59;100.00;99599.73;1729122;81;21176;-49
2022/10/25 08:58:23;;;;;;;5.90;4.97;;;;;;;15.59;100.00;99599.23;1728342;81;21755;-49
2022/10/25 09:00:49;;;;;;;6.37;5.47;;;;;;;15.60;100.00;99599.63;1730686;80;21045;-49
2022/10/25 09:03:24;;;;;;;8.28;5.05;;;;;;;15.59;100.00;99600.59;1735699;81;21090;-48
2022/10/25 09:06:24;;;;;;;9.15;3.67;;;;;;;15.61;100.00;99604.08;1728687;81;21764;-49
2022/10/25 09:09:16;;;;;;;6.90;3.85;;;;;;;15.62;100.00;99600.39;1736848;80;21079;-49
2022/10/25 09:11:56;;;;;;;8.53;4.30;;;;;;;15.65;100.00;99580.32;1731997;81;21118;-49
2022/10/25 09:14:45;;;;;;;3.50;2.42;;;;;;;15.69;100.00;99584.53;1727476;81;21018;-49
2022/10/25 09:17:22;;;;;;;2.40;1.90;;;;;;;15.71;100.00;99582.09;1720837;80;21048;-48
2022/10/25 09:19:58;;;;;;;7.42;2.55;;;;;;;15.73;100.00;99573.85;1722972;80;21056;-49
2022/10/25 09:22:29;;;;;;;2.62;2.42;;;;;;;15.72;100.00;99566.69;1721512;81;21449;-49
2022/10/25 09:25:06;;;;;;;3.20;2.20;;;;;;;15.72;100.00;99567.55;1668554;84;21807;-49
2022/10/25 09:27:36;;;;;;;4.95;2.12;;;;;;;15.72;100.00;99570.27;1722804;80;21596;-49
2022/10/25 09:30:09;;;;;;;3.92;1.90;;;;;;;15.71;100.00;99569.88;1720705;81;21003;-49
2022/10/25 09:32:44;;;;;;;4.15;1.82;;;;;;;15.70;100.00;99572.70;1660956;83;21514;-49
2022/10/25 09:35:23;;;;;;;2.50;1.80;;;;;;;15.71;100.00;99579.38;1718980;81;21001;-49
2022/10/25 09:37:57;;;;;;;1.42;1.32;;;;;;;15.71;100.00;99573.95;1719261;81;21813;-49
2022/10/25 09:40:28;;;;;;;4.23;1.53;;;;;;;15.72;100.00;99568.91;1722549;81;21021;-48
2022/10/25 09:43:05;;;;;;;1.75;1.50;;;;;;;15.74;100.00;99567.42;1716561;81;21732;-49
2022/10/25 09:45:49;;;;;;;6.65;3.65;;;;;;;15.74;100.00;99568.28;1716126;81;21755;-49
2022/10/25 09:48:32;;;;;;;3.33;2.33;;;;;;;15.76;100.00;99565.47;1721515;81;21063;-49
2022/10/25 09:51:23;;;;;;;12.30;11.10;;;;;;;15.77;100.00;99564.01;1662847;84;21858;-49
2022/10/25 09:53:50;;;;;;;9.90;9.03;;;;;;;15.78;100.00;99569.81;1722051;81;21051;-49
2022/10/25 09:56:17;;;;;;;9.20;5.83;;;;;;;15.78;100.00;99567.10;1723801;81;21067;-48
2022/10/25 09:58:46;;;;;;;5.35;4.95;;;;;;;15.78;100.00;99567.59;1724994;81;21088;-47
2022/10/25 10:01:27;;;;;;;19.25;17.25;;;;;;;15.78;100.00;99573.02;1728273;81;21047;-48
2022/10/25 10:03:59;;;;;;;37.98;33.08;;;;;;;15.78;100.00;99570.30;1722865;81;21068;-47
2022/10/25 10:06:30;;;;;;;40.20;35.90;;;;;;;15.78;100.00;99577.95;1731530;80;21062;-48
2022/10/25 10:09:01;;;;;;;28.65;25.75;;;;;;;15.78;100.00;99571.17;1717675;81;21267;-48
2022/10/25 10:11:28;;;;;;;17.27;14.23;;;;;;;15.80;100.00;99572.42;1716380;81;21052;-48
2022/10/25 10:13:59;;;;;;;9.30;8.50;;;;;;;15.81;100.00;99564.66;1726365;81;21035;-47
2022/10/25 10:16:42;;;;;;;5.45;3.62;;;;;;;15.82;100.00;99563.17;1721360;81;22277;-49
2022/10/25 10:19:28;;;;;;;3.98;1.92;;;;;;;15.85;100.00;99570.23;1715247;81;21074;-48
2022/10/25 10:22:01;;;;;;;3.05;1.40;;;;;;;15.84;100.00;99563.94;1723112;81;21069;-48
2022/10/25 10:24:32;;;;;;;4.28;2.05;;;;;;;15.85;100.00;99570.23;1718061;81;21101;-47
2022/10/25 10:29:23;;;;;;;3.62;2.67;;;;;;;15.82;100.00;99552.84;1865090;75;29054;-48
2022/10/25 10:31:53;;;;;;;4.03;2.80;;;;;;;15.79;100.00;99567.97;1842755;77;21467;-48
2022/10/25 10:34:29;;;;;;;4.28;3.30;;;;;;;15.77;100.00;99572.63;1849176;77;21931;-48
2022/10/25 10:37:07;;;;;;;6.22;5.55;;;;;;;15.74;100.00;99569.64;1844515;75;21617;-49
2022/10/25 10:39:37;;;;;;;9.50;5.87;;;;;;;15.72;100.00;99567.55;1841915;76;21060;-50
2022/10/25 10:42:21;;;;;;;11.12;7.87;;;;;;;15.72;100.00;99565.33;1803021;77;21017;-50
2022/10/25 10:45:12;;;;;;;7.50;4.95;;;;;;;15.69;100.00;99565.54;1832804;76;21083;-50
2022/10/25 10:47:51;;;;;;;14.13;10.88;;;;;;;15.67;100.00;99562.93;1829199;76;21027;-49
2022/10/25 10:50:24;;;;;;;20.95;16.55;;;;;;;15.66;100.00;99565.27;1801642;78;21049;-50
2022/10/25 10:52:58;;;;;;;14.75;12.28;;;;;;;15.65;100.00;99565.40;1773382;79;21028;-49
2022/10/25 10:55:37;;;;;;;10.10;7.00;;;;;;;15.63;100.00;99558.72;1769070;79;21020;-49
2022/10/25 10:58:13;;;;;;;10.18;7.17;;;;;;;15.62;100.00;99558.34;1776885;80;21900;-49
2022/10/25 11:00:50;;;;;;;10.10;5.92;;;;;;;15.60;100.00;99555.34;1780556;79;21933;-49
2022/10/25 11:03:45;;;;;;;33.28;22.35;;;;;;;15.57;100.00;99561.84;1777905;79;21042;-50
2022/10/25 11:06:17;;;;;;;;;;;;;;;15.56;100.00;99564.70;1780849;79;21029;-50
2022/10/25 11:08:46;;;;;;;29.45;17.48;;;;;;;15.53;100.00;99557.61;1775600;79;21220;-50
2022/10/25 11:11:18;;;;;;;9.50;2.62;;;;;;;15.48;100.00;99568.77;1802929;78;21364;-50
2022/10/25 11:14:00;;;;;;;1.93;1.53;;;;;;;15.47;100.00;99567.55;1780746;78;23286;-50
2022/10/25 11:16:56;;;;;;;2.17;1.20;;;;;;;15.45;100.00;99573.08;1782477;78;21227;-50
2022/10/25 11:19:35;;;;;;;1.50;1.25;;;;;;;15.43;100.00;99571.44;1780719;78;21041;-49
2022/10/25 11:24:11;;;;;;;15.40;11.53;;;;;;;15.45;100.00;99555.44;1854853;74;28518;-49
2022/10/25 11:26:58;;;;;;;3.27;2.80;;;;;;;15.45;100.00;99570.36;1837162;75;20994;-50
2022/10/25 11:29:55;;;;;;;7.08;5.47;;;;;;;15.45;100.00;99566.30;1841606;75;21948;-50
2022/10/25 11:32:48;;;;;;;7.20;3.30;;;;;;;15.45;100.00;99561.35;1844070;75;21565;-49
2022/10/25 11:35:54;;;;;;;4.12;2.30;;;;;;;15.42;100.00;99561.08;1836265;75;21660;-49
2022/10/25 11:38:29;;;;;;;3.20;2.15;;;;;;;15.40;100.00;99560.80;1841228;75;21459;-49
2022/10/25 11:41:07;;;;;;;2.60;2.40;;;;;;;15.38;100.00;99557.34;1843671;76;21050;-49
2022/10/25 11:44:19;;;;;;;2.35;2.08;;;;;;;15.36;100.00;99562.00;1840621;76;23518;-49